sensor_id;sensor_type;location;lat;lon;timestamp;temperature;humidity
48551;DHT22;34397;51.176;6.738;2023-02-01T00:01:09;5.50;91.00
48551;DHT22;34397;51.176;6.738;2023-02-01T00:03:42;5.60;91.00
48551;DHT22;34397;51.176;6.738;2023-02-01T00:06:14;5.60;91.10
48551;DHT22;34397;51.176;6.738;2023-02-01T00:08:45;5.60;91.30
48551;DHT22;34397;51.176;6.738;2023-02-01T00:11:17;5.60;91.50
48551;DHT22;34397;51.176;6.738;2023-02-01T00:13:49;5.60;91.20
48551;DHT22;34397;51.176;6.738;2023-02-01T00:16:22;5.60;91.20
48551;DHT22;34397;51.176;6.738;2023-02-01T00:18:58;5.50;91.30
48551;DHT22;34397;51.176;6.738;2023-02-01T00:21:30;5.60;91.30
48551;DHT22;34397;51.176;6.738;2023-02-01T00:24:03;5.60;91.20
48551;DHT22;34397;51.176;6.738;2023-02-01T00:26:35;5.60;91.10
48551;DHT22;34397;51.176;6.738;2023-02-01T00:29:09;5.60;91.00
48551;DHT22;34397;51.176;6.738;2023-02-01T00:31:43;5.60;90.90
48551;DHT22;34397;51.176;6.738;2023-02-01T00:34:16;5.60;90.70
48551;DHT22;34397;51.176;6.738;2023-02-01T00:36:48;5.60;90.70
48551;DHT22;34397;51.176;6.738;2023-02-01T00:39:19;5.60;90.50
48551;DHT22;34397;51.176;6.738;2023-02-01T00:41:51;5.60;90.30
48551;DHT22;34397;51.176;6.738;2023-02-01T00:44:23;5.60;90.20
48551;DHT22;34397;51.176;6.738;2023-02-01T00:46:54;5.60;90.00
48551;DHT22;34397;51.176;6.738;2023-02-01T00:49:28;5.60;89.70
48551;DHT22;34397;51.176;6.738;2023-02-01T00:51:59;5.60;88.90
48551;DHT22;34397;51.176;6.738;2023-02-01T00:54:32;5.60;88.70
48551;DHT22;34397;51.176;6.738;2023-02-01T00:57:04;5.50;88.00
48551;DHT22;34397;51.176;6.738;2023-02-01T00:59:36;5.50;87.00
48551;DHT22;34397;51.176;6.738;2023-02-01T01:02:08;5.50;86.20
48551;DHT22;34397;51.176;6.738;2023-02-01T01:04:42;5.50;85.70
48551;DHT22;34397;51.176;6.738;2023-02-01T01:07:14;5.40;84.30
48551;DHT22;34397;51.176;6.738;2023-02-01T01:09:46;5.40;84.20
48551;DHT22;34397;51.176;6.738;2023-02-01T01:12:17;5.40;83.20
48551;DHT22;34397;51.176;6.738;2023-02-01T01:14:50;5.40;82.30
48551;DHT22;34397;51.176;6.738;2023-02-01T01:17:21;5.40;82.20
48551;DHT22;34397;51.176;6.738;2023-02-01T01:19:54;5.40;81.60
48551;DHT22;34397;51.176;6.738;2023-02-01T01:22:26;5.40;81.40
48551;DHT22;34397;51.176;6.738;2023-02-01T01:24:58;5.40;80.30
48551;DHT22;34397;51.176;6.738;2023-02-01T01:27:29;5.40;80.60
48551;DHT22;34397;51.176;6.738;2023-02-01T01:30:01;5.40;79.70
48551;DHT22;34397;51.176;6.738;2023-02-01T01:32:33;5.40;79.40
48551;DHT22;34397;51.176;6.738;2023-02-01T01:35:06;5.40;79.60
48551;DHT22;34397;51.176;6.738;2023-02-01T01:37:38;5.40;79.40
48551;DHT22;34397;51.176;6.738;2023-02-01T01:40:10;5.40;79.40
48551;DHT22;34397;51.176;6.738;2023-02-01T01:42:43;5.40;78.80
48551;DHT22;34397;51.176;6.738;2023-02-01T01:45:20;5.40;79.30
48551;DHT22;34397;51.176;6.738;2023-02-01T01:47:56;5.30;79.00
48551;DHT22;34397;51.176;6.738;2023-02-01T01:50:30;5.30;78.70
48551;DHT22;34397;51.176;6.738;2023-02-01T01:53:05;5.30;78.50
48551;DHT22;34397;51.176;6.738;2023-02-01T01:55:38;5.30;79.20
48551;DHT22;34397;51.176;6.738;2023-02-01T01:58:13;5.30;79.10
48551;DHT22;34397;51.176;6.738;2023-02-01T02:00:46;5.20;78.80
48551;DHT22;34397;51.176;6.738;2023-02-01T02:03:19;5.20;78.80
48551;DHT22;34397;51.176;6.738;2023-02-01T02:05:53;5.20;79.80
48551;DHT22;34397;51.176;6.738;2023-02-01T02:08:26;5.20;78.40
48551;DHT22;34397;51.176;6.738;2023-02-01T02:10:58;5.10;78.90
48551;DHT22;34397;51.176;6.738;2023-02-01T02:13:31;5.10;79.10
48551;DHT22;34397;51.176;6.738;2023-02-01T02:16:06;5.10;78.50
48551;DHT22;34397;51.176;6.738;2023-02-01T02:18:46;5.10;78.90
48551;DHT22;34397;51.176;6.738;2023-02-01T02:21:32;5.00;78.80
48551;DHT22;34397;51.176;6.738;2023-02-01T02:27:18;4.90;78.90
48551;DHT22;34397;51.176;6.738;2023-02-01T02:30:08;4.90;79.00
48551;DHT22;34397;51.176;6.738;2023-02-01T02:32:54;4.90;79.40
48551;DHT22;34397;51.176;6.738;2023-02-01T02:35:49;4.90;79.30
48551;DHT22;34397;51.176;6.738;2023-02-01T02:38:24;4.90;79.30
48551;DHT22;34397;51.176;6.738;2023-02-01T02:41:03;4.80;79.30
48551;DHT22;34397;51.176;6.738;2023-02-01T02:43:43;4.80;79.70
48551;DHT22;34397;51.176;6.738;2023-02-01T02:46:36;4.80;79.40
48551;DHT22;34397;51.176;6.738;2023-02-01T02:49:27;4.80;79.40
48551;DHT22;34397;51.176;6.738;2023-02-01T02:52:04;4.80;79.50
48551;DHT22;34397;51.176;6.738;2023-02-01T02:55:01;4.80;79.40
48551;DHT22;34397;51.176;6.738;2023-02-01T02:57:36;4.80;79.40
48551;DHT22;34397;51.176;6.738;2023-02-01T03:00:27;4.80;79.50
48551;DHT22;34397;51.176;6.738;2023-02-01T03:03:18;4.80;79.70
48551;DHT22;34397;51.176;6.738;2023-02-01T03:06:11;4.70;80.10
48551;DHT22;34397;51.176;6.738;2023-02-01T03:08:46;4.70;80.20
48551;DHT22;34397;51.176;6.738;2023-02-01T03:11:18;4.60;80.60
48551;DHT22;34397;51.176;6.738;2023-02-01T03:13:50;4.60;80.70
48551;DHT22;34397;51.176;6.738;2023-02-01T03:16:22;4.60;81.00
48551;DHT22;34397;51.176;6.738;2023-02-01T03:18:56;4.60;81.20
48551;DHT22;34397;51.176;6.738;2023-02-01T03:21:31;4.60;81.50
48551;DHT22;34397;51.176;6.738;2023-02-01T03:24:07;4.60;81.60
48551;DHT22;34397;51.176;6.738;2023-02-01T03:26:42;4.60;82.00
48551;DHT22;34397;51.176;6.738;2023-02-01T03:29:17;4.60;82.10
48551;DHT22;34397;51.176;6.738;2023-02-01T03:31:51;4.60;82.00
48551;DHT22;34397;51.176;6.738;2023-02-01T03:34:23;4.60;82.00
48551;DHT22;34397;51.176;6.738;2023-02-01T03:36:56;4.60;81.90
48551;DHT22;34397;51.176;6.738;2023-02-01T03:39:31;4.60;81.70
48551;DHT22;34397;51.176;6.738;2023-02-01T03:42:05;4.60;81.60
48551;DHT22;34397;51.176;6.738;2023-02-01T03:44:40;4.60;81.60
48551;DHT22;34397;51.176;6.738;2023-02-01T03:47:15;4.70;81.00
48551;DHT22;34397;51.176;6.738;2023-02-01T03:49:50;4.80;81.10
48551;DHT22;34397;51.176;6.738;2023-02-01T03:52:25;4.70;79.80
48551;DHT22;34397;51.176;6.738;2023-02-01T03:55:01;4.70;80.10
48551;DHT22;34397;51.176;6.738;2023-02-01T03:57:34;4.80;80.10
48551;DHT22;34397;51.176;6.738;2023-02-01T04:00:09;4.80;79.90
48551;DHT22;34397;51.176;6.738;2023-02-01T04:02:47;4.80;79.60
48551;DHT22;34397;51.176;6.738;2023-02-01T04:05:19;4.90;80.40
48551;DHT22;34397;51.176;6.738;2023-02-01T04:07:51;4.90;79.60
48551;DHT22;34397;51.176;6.738;2023-02-01T04:10:25;4.90;79.30
48551;DHT22;34397;51.176;6.738;2023-02-01T04:12:57;4.90;79.60
48551;DHT22;34397;51.176;6.738;2023-02-01T04:15:29;5.00;79.40
48551;DHT22;34397;51.176;6.738;2023-02-01T04:18:01;5.00;79.50
48551;DHT22;34397;51.176;6.738;2023-02-01T04:20:33;5.00;79.40
48551;DHT22;34397;51.176;6.738;2023-02-01T04:23:04;4.90;79.00
48551;DHT22;34397;51.176;6.738;2023-02-01T04:25:37;4.90;79.80
48551;DHT22;34397;51.176;6.738;2023-02-01T04:28:09;4.90;79.60
48551;DHT22;34397;51.176;6.738;2023-02-01T04:30:41;5.00;79.70
48551;DHT22;34397;51.176;6.738;2023-02-01T04:33:12;5.00;79.60
48551;DHT22;34397;51.176;6.738;2023-02-01T04:35:44;5.00;79.50
48551;DHT22;34397;51.176;6.738;2023-02-01T04:38:16;5.00;79.40
48551;DHT22;34397;51.176;6.738;2023-02-01T04:40:49;4.90;79.30
48551;DHT22;34397;51.176;6.738;2023-02-01T04:43:21;4.90;79.80
48551;DHT22;34397;51.176;6.738;2023-02-01T04:45:52;4.80;79.90
48551;DHT22;34397;51.176;6.738;2023-02-01T04:48:24;4.80;80.10
48551;DHT22;34397;51.176;6.738;2023-02-01T04:50:56;4.70;80.20
48551;DHT22;34397;51.176;6.738;2023-02-01T04:53:28;4.70;80.40
48551;DHT22;34397;51.176;6.738;2023-02-01T04:56:01;4.60;80.50
48551;DHT22;34397;51.176;6.738;2023-02-01T04:58:33;4.60;80.60
48551;DHT22;34397;51.176;6.738;2023-02-01T05:01:05;4.60;80.60
48551;DHT22;34397;51.176;6.738;2023-02-01T05:03:38;4.50;80.70
48551;DHT22;34397;51.176;6.738;2023-02-01T05:06:10;4.50;80.90
48551;DHT22;34397;51.176;6.738;2023-02-01T05:08:42;4.50;80.90
48551;DHT22;34397;51.176;6.738;2023-02-01T05:11:15;4.50;80.90
48551;DHT22;34397;51.176;6.738;2023-02-01T05:14:00;4.50;80.80
48551;DHT22;34397;51.176;6.738;2023-02-01T05:16:32;4.40;80.80
48551;DHT22;34397;51.176;6.738;2023-02-01T05:19:04;4.50;80.90
48551;DHT22;34397;51.176;6.738;2023-02-01T05:21:35;4.50;80.70
48551;DHT22;34397;51.176;6.738;2023-02-01T05:24:07;4.50;80.80
48551;DHT22;34397;51.176;6.738;2023-02-01T05:26:46;4.50;80.80
48551;DHT22;34397;51.176;6.738;2023-02-01T05:29:18;4.50;80.90
48551;DHT22;34397;51.176;6.738;2023-02-01T05:31:49;4.40;80.80
48551;DHT22;34397;51.176;6.738;2023-02-01T05:34:21;4.40;80.70
48551;DHT22;34397;51.176;6.738;2023-02-01T05:36:53;4.40;80.90
48551;DHT22;34397;51.176;6.738;2023-02-01T05:39:25;4.40;80.70
48551;DHT22;34397;51.176;6.738;2023-02-01T05:41:57;4.40;80.90
48551;DHT22;34397;51.176;6.738;2023-02-01T05:44:29;4.40;80.80
48551;DHT22;34397;51.176;6.738;2023-02-01T05:47:01;4.40;81.00
48551;DHT22;34397;51.176;6.738;2023-02-01T05:49:33;4.30;81.00
48551;DHT22;34397;51.176;6.738;2023-02-01T05:52:05;4.30;80.90
48551;DHT22;34397;51.176;6.738;2023-02-01T05:54:36;4.30;80.90
48551;DHT22;34397;51.176;6.738;2023-02-01T05:57:09;4.40;80.80
48551;DHT22;34397;51.176;6.738;2023-02-01T05:59:43;4.40;80.70
48551;DHT22;34397;51.176;6.738;2023-02-01T06:02:16;4.40;80.70
48551;DHT22;34397;51.176;6.738;2023-02-01T06:04:47;4.40;80.70
48551;DHT22;34397;51.176;6.738;2023-02-01T06:07:19;4.40;80.50
48551;DHT22;34397;51.176;6.738;2023-02-01T06:09:52;4.40;80.60
48551;DHT22;34397;51.176;6.738;2023-02-01T06:12:25;4.40;80.40
48551;DHT22;34397;51.176;6.738;2023-02-01T06:14:58;4.40;80.50
48551;DHT22;34397;51.176;6.738;2023-02-01T06:17:30;4.40;80.50
48551;DHT22;34397;51.176;6.738;2023-02-01T06:20:01;4.40;80.60
48551;DHT22;34397;51.176;6.738;2023-02-01T06:22:33;4.30;80.60
48551;DHT22;34397;51.176;6.738;2023-02-01T06:25:07;4.30;80.90
48551;DHT22;34397;51.176;6.738;2023-02-01T06:27:41;4.30;80.90
48551;DHT22;34397;51.176;6.738;2023-02-01T06:30:15;4.30;80.80
48551;DHT22;34397;51.176;6.738;2023-02-01T06:32:49;4.30;81.00
48551;DHT22;34397;51.176;6.738;2023-02-01T06:35:23;4.30;80.90
48551;DHT22;34397;51.176;6.738;2023-02-01T06:37:56;4.30;81.00
48551;DHT22;34397;51.176;6.738;2023-02-01T06:40:28;4.30;80.80
48551;DHT22;34397;51.176;6.738;2023-02-01T06:43:01;4.40;81.10
48551;DHT22;34397;51.176;6.738;2023-02-01T06:45:33;4.40;81.00
48551;DHT22;34397;51.176;6.738;2023-02-01T06:48:05;4.40;80.80
48551;DHT22;34397;51.176;6.738;2023-02-01T06:50:36;4.40;81.00
48551;DHT22;34397;51.176;6.738;2023-02-01T06:53:08;4.50;80.80
48551;DHT22;34397;51.176;6.738;2023-02-01T06:55:40;4.50;80.70
48551;DHT22;34397;51.176;6.738;2023-02-01T06:58:13;4.60;80.60
48551;DHT22;34397;51.176;6.738;2023-02-01T07:00:44;4.60;80.40
48551;DHT22;34397;51.176;6.738;2023-02-01T07:03:16;4.60;80.30
48551;DHT22;34397;51.176;6.738;2023-02-01T07:05:48;4.60;80.20
48551;DHT22;34397;51.176;6.738;2023-02-01T07:08:19;4.60;80.30
48551;DHT22;34397;51.176;6.738;2023-02-01T07:10:51;4.60;80.40
48551;DHT22;34397;51.176;6.738;2023-02-01T07:13:24;4.70;80.20
48551;DHT22;34397;51.176;6.738;2023-02-01T07:15:57;4.70;80.50
48551;DHT22;34397;51.176;6.738;2023-02-01T07:18:30;4.70;80.60
48551;DHT22;34397;51.176;6.738;2023-02-01T07:21:02;4.80;80.40
48551;DHT22;34397;51.176;6.738;2023-02-01T07:23:34;4.80;80.10
48551;DHT22;34397;51.176;6.738;2023-02-01T07:26:07;4.80;80.30
48551;DHT22;34397;51.176;6.738;2023-02-01T07:28:40;4.80;80.00
48551;DHT22;34397;51.176;6.738;2023-02-01T07:31:13;4.80;80.20
48551;DHT22;34397;51.176;6.738;2023-02-01T07:33:48;4.80;79.80
48551;DHT22;34397;51.176;6.738;2023-02-01T07:36:22;4.80;80.10
48551;DHT22;34397;51.176;6.738;2023-02-01T07:38:54;4.80;79.80
48551;DHT22;34397;51.176;6.738;2023-02-01T07:41:26;4.80;80.30
48551;DHT22;34397;51.176;6.738;2023-02-01T07:43:59;4.80;80.00
48551;DHT22;34397;51.176;6.738;2023-02-01T07:46:30;4.80;79.90
48551;DHT22;34397;51.176;6.738;2023-02-01T07:49:02;4.80;79.60
48551;DHT22;34397;51.176;6.738;2023-02-01T07:51:34;4.80;79.90
48551;DHT22;34397;51.176;6.738;2023-02-01T07:54:05;4.80;80.00
48551;DHT22;34397;51.176;6.738;2023-02-01T07:56:37;4.80;80.10
48551;DHT22;34397;51.176;6.738;2023-02-01T07:59:10;4.90;80.10
48551;DHT22;34397;51.176;6.738;2023-02-01T08:01:42;4.90;80.00
48551;DHT22;34397;51.176;6.738;2023-02-01T08:04:13;4.90;80.00
48551;DHT22;34397;51.176;6.738;2023-02-01T08:06:45;4.90;79.90
48551;DHT22;34397;51.176;6.738;2023-02-01T08:09:16;5.00;79.90
48551;DHT22;34397;51.176;6.738;2023-02-01T08:11:48;5.00;79.70
48551;DHT22;34397;51.176;6.738;2023-02-01T08:14:21;5.00;80.00
48551;DHT22;34397;51.176;6.738;2023-02-01T08:16:53;5.00;79.40
48551;DHT22;34397;51.176;6.738;2023-02-01T08:19:24;5.00;80.40
48551;DHT22;34397;51.176;6.738;2023-02-01T08:21:56;5.10;80.30
48551;DHT22;34397;51.176;6.738;2023-02-01T08:26:50;5.20;78.40
48551;DHT22;34397;51.176;6.738;2023-02-01T08:29:22;5.10;79.20
48551;DHT22;34397;51.176;6.738;2023-02-01T08:31:54;5.10;79.30
48551;DHT22;34397;51.176;6.738;2023-02-01T08:34:26;5.00;79.40
48551;DHT22;34397;51.176;6.738;2023-02-01T08:36:57;5.00;79.40
48551;DHT22;34397;51.176;6.738;2023-02-01T08:39:30;5.00;79.60
48551;DHT22;34397;51.176;6.738;2023-02-01T08:42:03;5.00;79.80
48551;DHT22;34397;51.176;6.738;2023-02-01T08:44:52;5.00;80.00
48551;DHT22;34397;51.176;6.738;2023-02-01T08:47:24;5.00;80.00
48551;DHT22;34397;51.176;6.738;2023-02-01T08:49:56;5.00;79.90
48551;DHT22;34397;51.176;6.738;2023-02-01T08:52:28;4.90;79.70
48551;DHT22;34397;51.176;6.738;2023-02-01T08:55:00;4.90;79.90
48551;DHT22;34397;51.176;6.738;2023-02-01T08:57:33;4.90;79.80
48551;DHT22;34397;51.176;6.738;2023-02-01T09:00:06;4.90;79.80
48551;DHT22;34397;51.176;6.738;2023-02-01T09:02:40;4.90;80.30
48551;DHT22;34397;51.176;6.738;2023-02-01T09:05:12;4.90;80.20
48551;DHT22;34397;51.176;6.738;2023-02-01T09:07:44;4.90;80.00
48551;DHT22;34397;51.176;6.738;2023-02-01T09:10:16;4.90;80.50
48551;DHT22;34397;51.176;6.738;2023-02-01T09:12:49;5.00;79.60
48551;DHT22;34397;51.176;6.738;2023-02-01T09:15:22;5.10;79.80
48551;DHT22;34397;51.176;6.738;2023-02-01T09:17:54;5.10;79.60
48551;DHT22;34397;51.176;6.738;2023-02-01T09:20:26;5.10;79.10
48551;DHT22;34397;51.176;6.738;2023-02-01T09:22:58;5.10;79.00
48551;DHT22;34397;51.176;6.738;2023-02-01T09:25:30;5.10;79.20
48551;DHT22;34397;51.176;6.738;2023-02-01T09:28:03;5.20;79.50
48551;DHT22;34397;51.176;6.738;2023-02-01T09:30:36;5.20;79.20
48551;DHT22;34397;51.176;6.738;2023-02-01T09:33:08;5.10;79.20
48551;DHT22;34397;51.176;6.738;2023-02-01T09:35:40;4.90;79.60
48551;DHT22;34397;51.176;6.738;2023-02-01T09:38:12;4.90;80.50
48551;DHT22;34397;51.176;6.738;2023-02-01T09:40:46;4.90;80.20
48551;DHT22;34397;51.176;6.738;2023-02-01T09:43:34;5.00;80.40
48551;DHT22;34397;51.176;6.738;2023-02-01T09:46:20;5.00;80.30
48551;DHT22;34397;51.176;6.738;2023-02-01T09:48:54;5.10;79.80
48551;DHT22;34397;51.176;6.738;2023-02-01T09:51:32;5.10;79.70
48551;DHT22;34397;51.176;6.738;2023-02-01T09:54:12;5.20;79.40
48551;DHT22;34397;51.176;6.738;2023-02-01T09:56:47;5.10;78.90
48551;DHT22;34397;51.176;6.738;2023-02-01T09:59:31;5.10;79.30
48551;DHT22;34397;51.176;6.738;2023-02-01T10:02:12;5.20;79.60
48551;DHT22;34397;51.176;6.738;2023-02-01T10:04:47;5.20;79.50
48551;DHT22;34397;51.176;6.738;2023-02-01T10:07:28;5.20;79.50
48551;DHT22;34397;51.176;6.738;2023-02-01T10:10:07;5.20;79.60
48551;DHT22;34397;51.176;6.738;2023-02-01T10:13:03;5.30;79.40
48551;DHT22;34397;51.176;6.738;2023-02-01T10:16:00;5.30;79.40
48551;DHT22;34397;51.176;6.738;2023-02-01T10:18:50;5.30;79.60
48551;DHT22;34397;51.176;6.738;2023-02-01T10:21:44;5.30;80.00
48551;DHT22;34397;51.176;6.738;2023-02-01T10:24:37;5.30;79.50
48551;DHT22;34397;51.176;6.738;2023-02-01T10:27:14;5.30;79.30
48551;DHT22;34397;51.176;6.738;2023-02-01T10:29:53;5.40;79.60
48551;DHT22;34397;51.176;6.738;2023-02-01T10:32:30;5.40;79.50
48551;DHT22;34397;51.176;6.738;2023-02-01T10:35:13;5.50;79.50
48551;DHT22;34397;51.176;6.738;2023-02-01T10:37:47;5.60;79.30
48551;DHT22;34397;51.176;6.738;2023-02-01T10:40:20;5.60;78.40
48551;DHT22;34397;51.176;6.738;2023-02-01T10:43:00;5.70;78.30
48551;DHT22;34397;51.176;6.738;2023-02-01T10:45:33;5.70;78.00
48551;DHT22;34397;51.176;6.738;2023-02-01T10:48:08;5.70;78.20
48551;DHT22;34397;51.176;6.738;2023-02-01T10:50:46;5.80;78.80
48551;DHT22;34397;51.176;6.738;2023-02-01T10:53:25;5.80;78.60
48551;DHT22;34397;51.176;6.738;2023-02-01T10:56:06;5.80;78.00
48551;DHT22;34397;51.176;6.738;2023-02-01T10:58:43;5.90;78.10
48551;DHT22;34397;51.176;6.738;2023-02-01T11:01:20;5.90;77.40
48551;DHT22;34397;51.176;6.738;2023-02-01T11:03:55;5.80;77.70
48551;DHT22;34397;51.176;6.738;2023-02-01T11:06:30;5.80;77.30
48551;DHT22;34397;51.176;6.738;2023-02-01T11:09:11;5.80;77.50
48551;DHT22;34397;51.176;6.738;2023-02-01T11:11:56;5.80;77.50
48551;DHT22;34397;51.176;6.738;2023-02-01T11:14:35;5.80;77.20
48551;DHT22;34397;51.176;6.738;2023-02-01T11:17:21;5.80;77.20
48551;DHT22;34397;51.176;6.738;2023-02-01T11:19:59;5.80;77.30
48551;DHT22;34397;51.176;6.738;2023-02-01T11:22:32;5.80;77.90
48551;DHT22;34397;51.176;6.738;2023-02-01T11:25:09;5.70;78.00
48551;DHT22;34397;51.176;6.738;2023-02-01T11:27:42;5.60;77.80
48551;DHT22;34397;51.176;6.738;2023-02-01T11:30:15;5.80;78.20
48551;DHT22;34397;51.176;6.738;2023-02-01T11:32:49;5.90;78.00
48551;DHT22;34397;51.176;6.738;2023-02-01T11:35:22;5.90;77.20
48551;DHT22;34397;51.176;6.738;2023-02-01T11:37:57;5.90;77.40
48551;DHT22;34397;51.176;6.738;2023-02-01T11:40:35;5.90;77.20
48551;DHT22;34397;51.176;6.738;2023-02-01T11:43:13;6.00;77.00
48551;DHT22;34397;51.176;6.738;2023-02-01T11:45:57;6.00;75.90
48551;DHT22;34397;51.176;6.738;2023-02-01T11:48:31;6.10;75.70
48551;DHT22;34397;51.176;6.738;2023-02-01T11:51:19;6.10;74.70
48551;DHT22;34397;51.176;6.738;2023-02-01T11:54:06;6.00;74.20
48551;DHT22;34397;51.176;6.738;2023-02-01T11:56:49;6.00;73.90
48551;DHT22;34397;51.176;6.738;2023-02-01T11:59:42;6.10;73.40
48551;DHT22;34397;51.176;6.738;2023-02-01T12:02:52;6.00;72.40
48551;DHT22;34397;51.176;6.738;2023-02-01T12:05:37;6.10;73.20
48551;DHT22;34397;51.176;6.738;2023-02-01T12:08:31;6.10;72.10
48551;DHT22;34397;51.176;6.738;2023-02-01T12:11:28;6.20;72.80
48551;DHT22;34397;51.176;6.738;2023-02-01T12:14:19;6.20;72.30
48551;DHT22;34397;51.176;6.738;2023-02-01T12:20:24;6.20;72.50
48551;DHT22;34397;51.176;6.738;2023-02-01T12:23:16;6.30;72.00
48551;DHT22;34397;51.176;6.738;2023-02-01T12:26:06;6.20;72.20
48551;DHT22;34397;51.176;6.738;2023-02-01T12:29:18;6.30;72.50
48551;DHT22;34397;51.176;6.738;2023-02-01T12:32:14;6.30;72.40
48551;DHT22;34397;51.176;6.738;2023-02-01T12:35:10;6.30;72.00
48551;DHT22;34397;51.176;6.738;2023-02-01T12:37:55;6.30;72.40
48551;DHT22;34397;51.176;6.738;2023-02-01T12:40:46;6.30;72.70
48551;DHT22;34397;51.176;6.738;2023-02-01T12:43:33;6.20;72.60
48551;DHT22;34397;51.176;6.738;2023-02-01T12:46:11;6.10;73.40
48551;DHT22;34397;51.176;6.738;2023-02-01T12:48:54;6.10;73.90
48551;DHT22;34397;51.176;6.738;2023-02-01T12:51:31;6.20;74.60
48551;DHT22;34397;51.176;6.738;2023-02-01T12:54:11;6.20;74.10
48551;DHT22;34397;51.176;6.738;2023-02-01T12:56:49;6.10;74.00
48551;DHT22;34397;51.176;6.738;2023-02-01T12:59:28;6.20;74.40
48551;DHT22;34397;51.176;6.738;2023-02-01T13:02:12;6.20;74.00
48551;DHT22;34397;51.176;6.738;2023-02-01T13:04:56;6.30;74.30
48551;DHT22;34397;51.176;6.738;2023-02-01T13:07:38;6.20;73.60
48551;DHT22;34397;51.176;6.738;2023-02-01T13:10:17;6.30;73.60
48551;DHT22;34397;51.176;6.738;2023-02-01T13:12:54;6.30;73.50
48551;DHT22;34397;51.176;6.738;2023-02-01T13:15:30;6.30;73.60
48551;DHT22;34397;51.176;6.738;2023-02-01T13:18:05;6.30;73.80
48551;DHT22;34397;51.176;6.738;2023-02-01T13:20:47;6.30;73.90
48551;DHT22;34397;51.176;6.738;2023-02-01T13:23:26;6.30;73.40
48551;DHT22;34397;51.176;6.738;2023-02-01T13:25:59;6.30;73.30
48551;DHT22;34397;51.176;6.738;2023-02-01T13:28:45;6.30;73.80
48551;DHT22;34397;51.176;6.738;2023-02-01T13:34:43;6.40;72.90
48551;DHT22;34397;51.176;6.738;2023-02-01T13:38:04;6.30;73.30
48551;DHT22;34397;51.176;6.738;2023-02-01T13:41:06;6.40;73.40
48551;DHT22;34397;51.176;6.738;2023-02-01T13:43:48;6.40;72.80
48551;DHT22;34397;51.176;6.738;2023-02-01T13:46:22;6.40;72.80
48551;DHT22;34397;51.176;6.738;2023-02-01T13:48:56;6.40;72.80
48551;DHT22;34397;51.176;6.738;2023-02-01T13:51:36;6.40;72.60
48551;DHT22;34397;51.176;6.738;2023-02-01T13:54:33;6.50;72.70
48551;DHT22;34397;51.176;6.738;2023-02-01T13:57:23;6.50;73.00
48551;DHT22;34397;51.176;6.738;2023-02-01T14:00:22;6.50;72.10
48551;DHT22;34397;51.176;6.738;2023-02-01T14:03:09;6.50;72.00
48551;DHT22;34397;51.176;6.738;2023-02-01T14:09:17;6.50;72.10
48551;DHT22;34397;51.176;6.738;2023-02-01T14:11:51;6.50;71.60
48551;DHT22;34397;51.176;6.738;2023-02-01T14:14:45;6.50;71.60
48551;DHT22;34397;51.176;6.738;2023-02-01T14:17:36;6.50;71.90
48551;DHT22;34397;51.176;6.738;2023-02-01T14:23:21;6.60;71.40
48551;DHT22;34397;51.176;6.738;2023-02-01T14:26:10;6.70;70.80
48551;DHT22;34397;51.176;6.738;2023-02-01T14:28:54;6.70;70.60
48551;DHT22;34397;51.176;6.738;2023-02-01T14:31:44;6.60;70.20
48551;DHT22;34397;51.176;6.738;2023-02-01T14:34:32;6.60;69.90
48551;DHT22;34397;51.176;6.738;2023-02-01T14:37:09;6.60;70.50
48551;DHT22;34397;51.176;6.738;2023-02-01T14:40:04;6.70;70.30
48551;DHT22;34397;51.176;6.738;2023-02-01T14:42:42;6.70;70.60
48551;DHT22;34397;51.176;6.738;2023-02-01T14:45:47;6.60;69.70
48551;DHT22;34397;51.176;6.738;2023-02-01T14:48:44;6.60;70.40
48551;DHT22;34397;51.176;6.738;2023-02-01T14:51:19;6.70;70.40
48551;DHT22;34397;51.176;6.738;2023-02-01T14:53:52;6.70;70.20
48551;DHT22;34397;51.176;6.738;2023-02-01T14:56:26;6.70;70.00
48551;DHT22;34397;51.176;6.738;2023-02-01T14:59:01;6.80;69.90
48551;DHT22;34397;51.176;6.738;2023-02-01T15:01:48;6.70;70.00
48551;DHT22;34397;51.176;6.738;2023-02-01T15:04:25;6.70;69.90
48551;DHT22;34397;51.176;6.738;2023-02-01T15:07:05;6.70;70.10
48551;DHT22;34397;51.176;6.738;2023-02-01T15:09:42;6.80;70.10
48551;DHT22;34397;51.176;6.738;2023-02-01T15:12:17;6.80;70.10
48551;DHT22;34397;51.176;6.738;2023-02-01T15:15:14;6.70;70.20
48551;DHT22;34397;51.176;6.738;2023-02-01T15:17:52;6.70;70.20
48551;DHT22;34397;51.176;6.738;2023-02-01T15:20:26;6.70;70.10
48551;DHT22;34397;51.176;6.738;2023-02-01T15:23:03;6.80;70.50
48551;DHT22;34397;51.176;6.738;2023-02-01T15:25:37;6.70;70.30
48551;DHT22;34397;51.176;6.738;2023-02-01T15:28:13;6.70;70.40
48551;DHT22;34397;51.176;6.738;2023-02-01T15:30:54;6.70;70.40
48551;DHT22;34397;51.176;6.738;2023-02-01T15:33:30;6.80;70.60
48551;DHT22;34397;51.176;6.738;2023-02-01T15:36:10;6.80;70.70
48551;DHT22;34397;51.176;6.738;2023-02-01T15:38:45;6.80;71.60
48551;DHT22;34397;51.176;6.738;2023-02-01T15:41:19;6.80;70.30
48551;DHT22;34397;51.176;6.738;2023-02-01T15:44:04;6.80;70.60
48551;DHT22;34397;51.176;6.738;2023-02-01T15:46:44;6.80;70.70
48551;DHT22;34397;51.176;6.738;2023-02-01T15:49:25;6.80;70.80
48551;DHT22;34397;51.176;6.738;2023-02-01T15:52:00;6.80;70.80
48551;DHT22;34397;51.176;6.738;2023-02-01T15:54:41;6.80;70.80
48551;DHT22;34397;51.176;6.738;2023-02-01T15:57:20;6.80;71.00
48551;DHT22;34397;51.176;6.738;2023-02-01T16:00:03;6.80;71.00
48551;DHT22;34397;51.176;6.738;2023-02-01T16:02:41;6.80;71.40
48551;DHT22;34397;51.176;6.738;2023-02-01T16:05:29;6.80;71.30
48551;DHT22;34397;51.176;6.738;2023-02-01T16:08:06;6.80;71.40
48551;DHT22;34397;51.176;6.738;2023-02-01T16:10:44;6.70;71.30
48551;DHT22;34397;51.176;6.738;2023-02-01T16:13:18;6.80;71.70
48551;DHT22;34397;51.176;6.738;2023-02-01T16:15:51;6.70;71.70
48551;DHT22;34397;51.176;6.738;2023-02-01T16:18:23;6.70;71.90
48551;DHT22;34397;51.176;6.738;2023-02-01T16:20:55;6.70;72.20
48551;DHT22;34397;51.176;6.738;2023-02-01T16:23:26;6.60;72.50
48551;DHT22;34397;51.176;6.738;2023-02-01T16:26:01;6.70;72.50
48551;DHT22;34397;51.176;6.738;2023-02-01T16:28:33;6.70;72.60
48551;DHT22;34397;51.176;6.738;2023-02-01T16:31:05;6.70;72.50
48551;DHT22;34397;51.176;6.738;2023-02-01T16:33:40;6.70;74.10
48551;DHT22;34397;51.176;6.738;2023-02-01T16:36:11;6.70;73.80
48551;DHT22;34397;51.176;6.738;2023-02-01T16:38:44;6.70;73.90
48551;DHT22;34397;51.176;6.738;2023-02-01T16:41:19;6.70;74.10
48551;DHT22;34397;51.176;6.738;2023-02-01T16:43:53;6.60;74.10
48551;DHT22;34397;51.176;6.738;2023-02-01T16:46:28;6.60;74.30
48551;DHT22;34397;51.176;6.738;2023-02-01T16:49:04;6.60;74.20
48551;DHT22;34397;51.176;6.738;2023-02-01T16:51:40;6.50;74.50
48551;DHT22;34397;51.176;6.738;2023-02-01T16:54:12;6.50;75.10
48551;DHT22;34397;51.176;6.738;2023-02-01T16:56:45;6.40;74.90
48551;DHT22;34397;51.176;6.738;2023-02-01T16:59:17;6.50;75.10
48551;DHT22;34397;51.176;6.738;2023-02-01T17:01:49;6.50;74.90
48551;DHT22;34397;51.176;6.738;2023-02-01T17:04:21;6.40;74.80